Tawakoni's Hourly Summary for Friday, April 14, 2017
Hour Temp
(f)
RH
(%)
Solar Rad.
(MJ/m2)
Rainfall
(in)
Wind
(mph)
4/14/2017 12:00 AM 66 68 0 0 3.54
4/14/2017 1:00 AM 65 69 0 0 4.58
4/14/2017 2:00 AM 64 72 0 0 4.64
4/14/2017 3:00 AM 63 78 0 0 4.24
4/14/2017 4:00 AM 61 83 0 0 3.63
4/14/2017 5:00 AM 61 86 0 0 4.39
4/14/2017 6:00 AM 60 88 0 0 4.68
4/14/2017 7:00 AM 60 89 0 0 4.29
4/14/2017 8:00 AM 60 85 0.29 0 3.35
4/14/2017 9:00 AM 65 77 0.8 0 4.32
4/14/2017 10:00 AM 67 74 0.96 0 5.53
4/14/2017 11:00 AM 70 57 2.09 0 7.51
4/14/2017 12:00 PM 72 52 2.39 0 7.63
4/14/2017 1:00 PM 75 45 3.12 0 9.66
4/14/2017 2:00 PM 76 40 3.3 0 9.99
4/14/2017 3:00 PM 77 38 3.17 0 9.53
4/14/2017 4:00 PM 78 38 2.72 0 8.82
4/14/2017 5:00 PM 77 39 2.26 0 8.61
4/14/2017 6:00 PM 77 39 1.56 0 7.42
4/14/2017 7:00 PM 76 41 0.87 0 5.67
4/14/2017 8:00 PM 73 45 0.17 0 2.38
4/14/2017 9:00 PM 68 60 0 0 1.96
4/14/2017 10:00 PM 67 63 0 0 3.45
4/14/2017 11:00 PM 67 63 0 0 3.64
Data Summary 68 62 23.70 0.00 5.56